KAPG/APG METAR and TAF weather

Enter ICAO airport designator
Station Type Date Time Source
KAPG METAR 2022/06/29 20:58 UTC NOAA

KAPG 292058Z 19010KT 10SM SCT040 28/18 A3015 RMK AO2A LAST AO2A SLP213 T02810176 57011 $


Station Type Date Time Source
KAPG Decoded METAR 2022/06/29 20:58 UTC NOAA

Phillips Army Air Field / Aberdeen, MD, United States (KAPG) 39-28N 076-10W
Jun 29, 2022 - 04:58 PM EDT / 2022.06.29 2058 UTC
Wind: from the S (190 degrees) at 12 MPH (10 KT):0
Visibility: 10 mile(s):0
Sky conditions: partly cloudy
Temperature: 82.6 F (28.1 C)
Dew Point: 63.7 F (17.6 C)
Relative Humidity: 52%
Pressure (altimeter): 30.15 in. Hg (1020 hPa)
Pressure tendency: 0.03 inches (1.1 hPa) lower than three hours ago
ob: KAPG 292058Z 19010KT 10SM SCT040 28/18 A3015 RMK AO2A LAST AO2A SLP213 T02810176 57011
cycle: 21

Station Type Date Time Source
KAPG TAF UTC NOAA

Error!

Example: see airport list